createdAt,value
2018-05-17T00:02:57.835Z,6.14
2018-05-17T00:08:52.863Z,6.17
2018-05-17T00:14:47.831Z,5.67
2018-05-17T00:20:42.828Z,6.59
2018-05-17T00:26:37.876Z,4.66
2018-05-17T00:32:32.812Z,4.67
2018-05-17T00:38:27.884Z,4.41
2018-05-17T00:44:22.894Z,4.84
2018-05-17T00:50:17.821Z,4.93
2018-05-17T00:56:12.834Z,5.28
2018-05-17T01:02:07.939Z,5.24
2018-05-17T01:08:02.968Z,4.68
2018-05-17T01:13:57.941Z,4.52
2018-05-17T01:19:52.900Z,4.78
2018-05-17T01:25:47.891Z,4.17
2018-05-17T01:31:42.942Z,3.82
2018-05-17T01:37:37.910Z,3.91
2018-05-17T01:43:32.915Z,3.14
2018-05-17T01:49:27.910Z,3.37
2018-05-17T01:55:22.919Z,3.35
2018-05-17T02:01:17.939Z,3.66
2018-05-17T02:07:12.888Z,4.01
2018-05-17T02:13:08.006Z,3.83
2018-05-17T02:19:02.882Z,4.03
2018-05-17T02:24:57.924Z,4.48
2018-05-17T02:30:53.001Z,4.14
2018-05-17T02:36:47.985Z,4.11
2018-05-17T02:42:42.891Z,4.21
2018-05-17T02:48:37.914Z,4.8
2018-05-17T02:54:32.925Z,5.41
2018-05-17T03:00:27.977Z,5.13
2018-05-17T03:06:22.964Z,4.48
2018-05-17T03:12:17.902Z,5.07
2018-05-17T03:18:12.953Z,5.52
2018-05-17T03:24:08.013Z,5.33
2018-05-17T03:30:03.550Z,4.99
2018-05-17T03:35:57.982Z,4.48
2018-05-17T03:41:53.012Z,4.33
2018-05-17T03:47:47.996Z,4.48
2018-05-17T03:53:42.977Z,4.58
2018-05-17T03:59:37.995Z,4.45
2018-05-17T04:05:32.990Z,3.92
2018-05-17T04:11:28.027Z,4.33
2018-05-17T04:17:22.987Z,4.96
2018-05-17T04:23:18.006Z,5.41
2018-05-17T04:29:13.063Z,6.02
2018-05-17T04:35:08.027Z,6.53
2018-05-17T04:41:03.061Z,7.12
2018-05-17T04:46:57.995Z,7.74
2018-05-17T04:52:53.005Z,7.02
2018-05-17T04:58:48.031Z,7.71
2018-05-17T05:04:43.004Z,7.39
2018-05-17T05:10:38.084Z,7.59
2018-05-17T05:16:33.011Z,7.49
2018-05-17T05:22:28.040Z,8.42
2018-05-17T05:28:23.020Z,8.11
2018-05-17T05:34:18.052Z,9.19
2018-05-17T05:40:13.053Z,10.93
2018-05-17T05:46:08.039Z,9.65
2018-05-17T05:52:03.069Z,9.99
2018-05-17T05:57:58.480Z,10.67
2018-05-17T06:03:53.025Z,8.65
2018-05-17T06:09:48.041Z,9.76
2018-05-17T06:15:43.051Z,8.47
2018-05-17T06:21:38.033Z,8.25
2018-05-17T06:27:33.103Z,8.33
2018-05-17T06:33:28.132Z,6.79
2018-05-17T06:39:23.018Z,7.49
2018-05-17T06:45:18.057Z,6.54
2018-05-17T06:51:13.059Z,7.18
2018-05-17T06:57:08.142Z,5.5
2018-05-17T07:03:03.084Z,4.53
2018-05-17T07:08:58.145Z,3.37
2018-05-17T07:14:53.070Z,4.27
2018-05-17T07:20:48.091Z,3.56
2018-05-17T07:26:43.127Z,4.62
2018-05-17T07:32:38.136Z,4.66
2018-05-17T07:38:33.172Z,4.14
2018-05-17T07:44:28.090Z,3.6
2018-05-17T07:50:23.160Z,3.86
2018-05-17T07:56:18.120Z,4.35
2018-05-17T08:02:13.169Z,4.82
2018-05-17T08:08:08.125Z,4.51
2018-05-17T08:14:03.094Z,7.9
2018-05-17T08:19:58.100Z,9.25
2018-05-17T08:25:53.162Z,6.01
2018-05-17T08:31:48.115Z,7.48
2018-05-17T08:37:43.276Z,8
2018-05-17T08:43:38.131Z,7.14
2018-05-17T08:49:33.152Z,6.19
2018-05-17T08:55:28.145Z,6.13
2018-05-17T09:01:23.257Z,5.94
2018-05-17T09:07:18.217Z,5.37
2018-05-17T09:13:13.176Z,5.97
2018-05-17T09:19:08.171Z,3.95
2018-05-17T09:25:03.130Z,5.26
2018-05-17T09:30:58.206Z,5.33
2018-05-17T09:36:53.215Z,4.86
2018-05-17T09:42:48.213Z,4.21
2018-05-17T09:48:43.216Z,3.71
2018-05-17T09:54:38.236Z,4.03
2018-05-17T10:00:33.204Z,3.41
2018-05-17T10:06:28.206Z,3.78
2018-05-17T10:12:23.299Z,2.69
2018-05-17T10:18:18.197Z,3.32
2018-05-17T10:24:13.221Z,3.17
2018-05-17T10:30:08.276Z,3.07
2018-05-17T10:36:03.196Z,3.45
2018-05-17T10:41:58.264Z,3.51
2018-05-17T10:47:53.355Z,3.59
2018-05-17T10:53:48.232Z,4.72
2018-05-17T10:59:43.222Z,2.93
2018-05-17T11:05:38.269Z,3.26
2018-05-17T11:11:33.255Z,2.56
2018-05-17T11:17:28.384Z,2.43
2018-05-17T11:23:23.333Z,2.91
2018-05-17T11:29:18.269Z,2.91
2018-05-17T11:35:13.339Z,4.51
2018-05-17T11:41:08.365Z,3.73
2018-05-17T11:47:03.334Z,3.62
2018-05-17T11:52:58.349Z,3.85
2018-05-17T11:58:53.293Z,3.76
2018-05-17T12:04:48.310Z,3.09
2018-05-17T12:10:43.351Z,3.01
2018-05-17T12:16:38.303Z,2.33
2018-05-17T12:22:33.341Z,3.57
2018-05-17T12:28:28.308Z,3.41
2018-05-17T12:34:23.390Z,3.17
2018-05-17T12:40:18.320Z,3.11
2018-05-17T12:46:13.377Z,3.04
2018-05-17T12:52:08.405Z,2.45
2018-05-17T12:58:03.364Z,2.1
2018-05-17T13:03:58.437Z,2.86
2018-05-17T13:09:53.409Z,3.15
2018-05-17T13:15:48.367Z,3.61
2018-05-17T13:21:43.357Z,3.76
2018-05-17T13:27:38.423Z,3.56
2018-05-17T13:33:33.369Z,3.77
2018-05-17T13:39:28.395Z,2.8
2018-05-17T13:45:23.402Z,2.84
2018-05-17T13:51:18.473Z,2.98
2018-05-17T13:57:13.379Z,3.14
2018-05-17T14:03:08.413Z,2.59
2018-05-17T14:09:03.460Z,2.64
2018-05-17T14:14:58.407Z,2.83
2018-05-17T14:20:53.505Z,3.04
2018-05-17T14:26:48.606Z,3.04
2018-05-17T14:32:43.439Z,3.29
2018-05-17T14:38:38.470Z,3.41
2018-05-17T14:44:33.431Z,4.02
2018-05-17T14:50:28.451Z,3.02
2018-05-17T14:56:23.537Z,3.25
2018-05-17T15:02:18.503Z,3.47
2018-05-17T15:08:13.479Z,3.6
2018-05-17T15:14:08.485Z,3.89
2018-05-17T15:20:03.543Z,3.36
2018-05-17T15:25:58.478Z,2.34
2018-05-17T15:31:53.517Z,2.84
2018-05-17T15:37:48.535Z,2.83
2018-05-17T15:43:43.476Z,3.35
2018-05-17T15:49:38.482Z,3.43
2018-05-17T15:55:33.507Z,3.28
2018-05-17T16:01:28.534Z,3.51
2018-05-17T16:07:23.482Z,3.07
2018-05-17T16:13:18.562Z,3.33
2018-05-17T16:19:13.505Z,3.12
2018-05-17T16:25:08.503Z,3.37
2018-05-17T16:31:03.513Z,3.12
2018-05-17T16:36:58.533Z,3.25
2018-05-17T16:42:53.516Z,3.96
2018-05-17T16:48:48.552Z,3.96
2018-05-17T16:54:43.564Z,3.74
2018-05-17T17:00:38.623Z,4.1
2018-05-17T17:06:33.567Z,3.91
2018-05-17T17:12:28.566Z,4.25
2018-05-17T17:18:23.576Z,6.72
2018-05-17T17:24:18.584Z,4.8
2018-05-17T17:30:13.560Z,4.34
2018-05-17T17:36:08.568Z,4.62
2018-05-17T17:42:03.566Z,5.05
2018-05-17T17:47:58.562Z,5.07
2018-05-17T17:53:53.611Z,4.2
2018-05-17T17:59:48.576Z,4.52
2018-05-17T18:05:43.672Z,5.21
2018-05-17T18:11:38.606Z,6.53
2018-05-17T18:17:33.596Z,4.96
2018-05-17T18:23:28.632Z,4.73
2018-05-17T18:29:23.595Z,4.88
2018-05-17T18:35:18.730Z,5.32
2018-05-17T18:41:13.629Z,5.3
2018-05-17T18:47:08.645Z,5.15
2018-05-17T18:53:03.636Z,4.74
2018-05-17T18:58:58.636Z,5.47
2018-05-17T19:04:53.659Z,5.87
2018-05-17T19:10:48.601Z,4.99
2018-05-17T19:16:43.643Z,5.12
2018-05-17T19:22:38.631Z,4.8
2018-05-17T19:28:33.632Z,4.44
2018-05-17T19:34:28.659Z,5.19
2018-05-17T19:40:23.693Z,4.26
2018-05-17T19:46:18.725Z,4.47
2018-05-17T19:52:13.667Z,4.53
2018-05-17T19:58:08.645Z,4.53
2018-05-17T20:04:03.710Z,4.69
2018-05-17T20:09:58.720Z,4.94
2018-05-17T20:15:53.670Z,4.27
2018-05-17T20:21:48.706Z,4.93
2018-05-17T20:27:43.666Z,4.77
2018-05-17T20:33:38.670Z,5.52
2018-05-17T20:39:33.755Z,4.93
2018-05-17T20:45:28.705Z,4.91
2018-05-17T20:51:23.693Z,4.81
2018-05-17T20:57:18.682Z,5.13
2018-05-17T21:03:13.715Z,4.81
2018-05-17T21:09:08.709Z,4.53
2018-05-17T21:15:03.708Z,6
2018-05-17T21:20:58.735Z,5.66
2018-05-17T21:26:53.768Z,6.67
2018-05-17T21:32:48.737Z,5.37
2018-05-17T21:38:43.769Z,5.76
2018-05-17T21:44:38.712Z,5.68
2018-05-17T21:50:33.724Z,7.08
2018-05-17T21:56:28.744Z,5.49
2018-05-17T22:02:23.734Z,5.91
2018-05-17T22:08:18.754Z,5.87
2018-05-17T22:14:13.733Z,6.51
2018-05-17T22:20:08.810Z,7.75
2018-05-17T22:26:03.789Z,7.38
2018-05-17T22:31:58.737Z,6.92
2018-05-17T22:37:53.758Z,6.8
2018-05-17T22:43:48.755Z,7.86
2018-05-17T22:49:43.787Z,6.01
2018-05-17T22:55:38.765Z,6.9
2018-05-17T23:01:33.752Z,6.51
2018-05-17T23:07:28.745Z,7.62
2018-05-17T23:13:23.813Z,8.51
2018-05-17T23:19:18.806Z,9.37
2018-05-17T23:25:13.805Z,11.84
2018-05-17T23:31:08.803Z,10.36
2018-05-17T23:37:03.778Z,9.96
2018-05-17T23:42:58.790Z,10.55
2018-05-17T23:48:53.810Z,10.31
2018-05-17T23:54:48.900Z,10.48
